Time;durP1;ratioP1;P1;durP2;ratioP2;P2;SDS_P1;SDS_P2;PMS_P1;PMS_P2;Temp;Humidity;BMP_temperature;BMP_pressure;BME280_temperature;BME280_humidity;BME280_pressure;Samples;Min_cycle;Max_cycle;Signal;HPM_P1;HPM_P2
2022/08/23 00:01:56;;;;;;;7.1;3;;;;;;;13.96;82.04199;937.7177;;;;
2022/08/23 00:04:21;;;;;;;3.3;2.6;;;;;;;13.93;82.33594;937.713;;;;
2022/08/23 00:06:51;;;;;;;6.5;3.4;;;;;;;13.79;82.94141;937.6677;;;;
2022/08/23 00:09:16;;;;;;;2.9;2.6;;;;;;;13.78;83.19043;937.6197;;;;
2022/08/23 00:11:44;;;;;;;3.7;2.7;;;;;;;13.8;83.27637;937.6195;;;;
2022/08/23 00:14:12;;;;;;;5.6;2.8;;;;;;;13.91;82.56055;937.5842;;;;
2022/08/23 00:16:37;;;;;;;6.1;3;;;;;;;13.88;82.52148;937.6147;;;;
2022/08/23 00:19:02;;;;;;;3.2;2.8;;;;;;;13.9;82.38477;937.6019;;;;
2022/08/23 00:21:28;;;;;;;6.8;3.4;;;;;;;13.93;82.71582;937.572;;;;
2022/08/23 00:23:54;;;;;;;6.4;3.3;;;;;;;13.92;82.24023;937.6545;;;;
2022/08/23 00:26:20;;;;;;;7;2.9;;;;;;;13.87;82.06934;937.6428;;;;
2022/08/23 00:28:45;;;;;;;6;3.3;;;;;;;13.75;82.32422;937.6238;;;;
2022/08/23 00:31:11;;;;;;;6;3.1;;;;;;;13.79;82.34277;937.5972;;;;
2022/08/23 00:33:37;;;;;;;3.9;2.8;;;;;;;13.75;82.00098;937.5438;;;;
2022/08/23 00:36:02;;;;;;;6.9;3.5;;;;;;;13.77;82.15332;937.53;;;;
2022/08/23 00:38:31;;;;;;;3.8;2.8;;;;;;;13.78;81.9834;937.5709;;;;
2022/08/23 00:40:56;;;;;;;6.9;3.1;;;;;;;13.74;82.16016;937.5398;;;;
2022/08/23 00:48:14;;;;;;;3.5;2.4;;;;;;;13.67;82.38965;937.6353;;;;
2022/08/23 00:50:39;;;;;;;5.8;3.1;;;;;;;13.62;82.35645;937.5427;;;;
2022/08/23 00:56:29;;;;;;;4.2;2.9;;;;;;;13.43;83.20605;937.5477;;;;
2022/08/23 00:58:53;;;;;;;4.3;3;;;;;;;13.36;83.69727;937.5269;;;;
2022/08/23 01:01:19;;;;;;;8.9;4;;;;;;;13.44;83.4834;937.5829;;;;
2022/08/23 01:03:44;;;;;;;4.4;3.2;;;;;;;13.37;83.55176;937.5859;;;;
2022/08/23 01:06:13;;;;;;;6.5;3.5;;;;;;;13.4;83.6377;937.6139;;;;
2022/08/23 01:08:38;;;;;;;3.4;2.7;;;;;;;13.46;83.24512;937.5556;;;;
2022/08/23 01:11:03;;;;;;;3.8;2.9;;;;;;;13.54;82.98535;937.5793;;;;
2022/08/23 01:13:28;;;;;;;8.4;3.8;;;;;;;13.6;82.59277;937.6121;;;;
2022/08/23 01:15:53;;;;;;;6;3.2;;;;;;;13.58;82.76367;937.6729;;;;
2022/08/23 01:18:18;;;;;;;4.5;3;;;;;;;13.63;82.4502;937.7098;;;;
2022/08/23 01:20:45;;;;;;;3;2.7;;;;;;;13.61;82.11328;937.7256;;;;
2022/08/23 01:23:10;;;;;;;3.9;2.6;;;;;;;13.55;82.35449;937.6978;;;;
2022/08/23 01:25:35;;;;;;;4.7;3.1;;;;;;;13.29;83.74121;937.6909;;;;
2022/08/23 01:28:01;;;;;;;3.5;2.7;;;;;;;13.4;83.34961;937.6859;;;;
2022/08/23 01:30:26;;;;;;;3.9;2.6;;;;;;;13.47;82.99609;937.6972;;;;
2022/08/23 01:32:55;;;;;;;3.8;2.7;;;;;;;13.53;82.66113;937.653;;;;
2022/08/23 01:35:20;;;;;;;3.8;3.2;;;;;;;13.46;82.82031;937.6708;;;;
2022/08/23 01:37:47;;;;;;;6;3.1;;;;;;;13.24;83.80176;937.6782;;;;
2022/08/23 01:40:15;;;;;;;5.7;3.3;;;;;;;13.08;84.48242;937.6715;;;;
2022/08/23 01:42:46;;;;;;;6.2;3.4;;;;;;;13.05;84.44238;937.6636;;;;
2022/08/23 01:45:10;;;;;;;3.6;3;;;;;;;13.05;84.29102;937.6012;;;;
2022/08/23 01:47:39;;;;;;;6.3;3;;;;;;;12.94;84.67383;937.7145;;;;
2022/08/23 01:50:03;;;;;;;3.8;3.2;;;;;;;;;;;;;
2022/08/23 01:52:29;;;;;;;4.7;3.5;;;;;;;;;;;;;
2022/08/23 01:54:56;;;;;;;8;4.6;;;;;;;;;;;;;
2022/08/23 01:57:19;;;;;;;5.2;3.3;;;;;;;;;;;;;
2022/08/23 01:59:44;;;;;;;3.8;3.1;;;;;;;;;;;;;
2022/08/23 02:02:09;;;;;;;5.3;2.8;;;;;;;;;;;;;
2022/08/23 02:04:34;;;;;;;4;2.9;;;;;;;;;;;;;
2022/08/23 02:06:59;;;;;;;9.2;3.3;;;;;;;;;;;;;
2022/08/23 02:09:25;;;;;;;5.1;3.3;;;;;;;;;;;;;
2022/08/23 02:11:50;;;;;;;4.8;3.1;;;;;;;;;;;;;
2022/08/23 02:14:15;;;;;;;5;2.9;;;;;;;;;;;;;
2022/08/23 02:16:40;;;;;;;3.4;3;;;;;;;;;;;;;
2022/08/23 02:19:06;;;;;;;8.7;3.5;;;;;;;;;;;;;
2022/08/23 02:21:32;;;;;;;6.1;3.5;;;;;;;;;;;;;
2022/08/23 02:23:57;;;;;;;8.8;3.4;;;;;;;;;;;;;
2022/08/23 02:26:22;;;;;;;3.9;3;;;;;;;;;;;;;
2022/08/23 02:28:48;;;;;;;4.2;2.9;;;;;;;;;;;;;
2022/08/23 02:31:13;;;;;;;4.4;2.7;;;;;;;;;;;;;
2022/08/23 02:33:40;;;;;;;3.8;3.3;;;;;;;;;;;;;
2022/08/23 02:36:05;;;;;;;3.2;2.8;;;;;;;;;;;;;
2022/08/23 02:38:31;;;;;;;3.2;2.9;;;;;;;;;;;;;
2022/08/23 02:40:56;;;;;;;3.6;3;;;;;;;;;;;;;
2022/08/23 02:43:22;;;;;;;3.3;3;;;;;;;;;;;;;
2022/08/23 02:45:47;;;;;;;4.7;3.4;;;;;;;;;;;;;
2022/08/23 02:48:13;;;;;;;3.6;3;;;;;;;;;;;;;
2022/08/23 02:50:38;;;;;;;4.9;3.3;;;;;;;;;;;;;
2022/08/23 02:53:06;;;;;;;5.1;3.1;;;;;;;;;;;;;
2022/08/23 02:55:30;;;;;;;4.6;3.2;;;;;;;;;;;;;
2022/08/23 02:57:57;;;;;;;3.7;2.9;;;;;;;;;;;;;
2022/08/23 03:00:21;;;;;;;5.2;3.4;;;;;;;;;;;;;
2022/08/23 03:02:47;;;;;;;4.6;3.7;;;;;;;;;;;;;
2022/08/23 03:05:12;;;;;;;5.7;3.9;;;;;;;;;;;;;
2022/08/23 03:07:38;;;;;;;5.9;3.6;;;;;;;;;;;;;
2022/08/23 03:10:03;;;;;;;6.7;3.7;;;;;;;;;;;;;
2022/08/23 03:12:28;;;;;;;4.8;3.5;;;;;;;;;;;;;
2022/08/23 03:14:55;;;;;;;4.6;3.3;;;;;;;;;;;;;
2022/08/23 03:17:20;;;;;;;6.1;3.2;;;;;;;;;;;;;
2022/08/23 03:19:47;;;;;;;4.9;3.1;;;;;;;;;;;;;
2022/08/23 03:22:12;;;;;;;5.2;3.1;;;;;;;;;;;;;
2022/08/23 03:24:37;;;;;;;4.8;3.2;;;;;;;;;;;;;
2022/08/23 03:27:02;;;;;;;5;3.4;;;;;;;;;;;;;
2022/08/23 03:29:27;;;;;;;4.8;3.5;;;;;;;;;;;;;
2022/08/23 03:31:54;;;;;;;6.5;4.1;;;;;;;;;;;;;
2022/08/23 03:34:19;;;;;;;7.1;3.9;;;;;;;;;;;;;
2022/08/23 03:36:45;;;;;;;6.9;3.8;;;;;;;;;;;;;
2022/08/23 03:39:10;;;;;;;4.6;3.9;;;;;;;;;;;;;
2022/08/23 03:41:36;;;;;;;6;3.6;;;;;;;;;;;;;
2022/08/23 03:44:01;;;;;;;6.9;3.7;;;;;;;;;;;;;
2022/08/23 03:46:27;;;;;;;7.6;4.5;;;;;;;;;;;;;
2022/08/23 03:48:52;;;;;;;7.9;3.9;;;;;;;;;;;;;
2022/08/23 03:51:18;;;;;;;7.2;4.1;;;;;;;;;;;;;
2022/08/23 03:53:43;;;;;;;8.8;4.5;;;;;;;;;;;;;
2022/08/23 03:56:32;;;;;;;5.6;4.3;;;;;;;;;;;;;
2022/08/23 03:58:57;;;;;;;6.7;4.2;;;;;;;;;;;;;
2022/08/23 04:02:36;;;;;;;8;3.8;;;;;;;12.21;87.17773;938.4942;;;;
2022/08/23 04:05:12;;;;;;;6.4;3.9;;;;;;;12.16;87.53516;938.5349;;;;
2022/08/23 04:07:45;;;;;;;7.3;4.3;;;;;;;12.13;87.87207;938.538;;;;
2022/08/23 04:10:18;;;;;;;6.2;3.8;;;;;;;12.13;87.97461;938.5316;;;;
2022/08/23 04:12:48;;;;;;;6.1;3.7;;;;;;;12.13;87.85059;938.6249;;;;
2022/08/23 04:15:13;;;;;;;4.5;3.7;;;;;;;12.13;87.81641;938.5411;;;;
2022/08/23 04:17:44;;;;;;;5.7;3.3;;;;;;;12.09;87.32715;938.6264;;;;
2022/08/23 04:20:09;;;;;;;5.2;3.8;;;;;;;12.09;87.12109;938.6375;;;;
2022/08/23 04:22:35;;;;;;;4.8;3.8;;;;;;;12.14;86.87793;938.7095;;;;
2022/08/23 04:25:00;;;;;;;4.8;3.3;;;;;;;12.08;87.22266;938.7261;;;;
2022/08/23 04:27:26;;;;;;;4.5;4;;;;;;;12.05;87.55957;938.6774;;;;
2022/08/23 04:29:51;;;;;;;7.7;3.6;;;;;;;12.09;87.28027;938.6895;;;;
2022/08/23 04:32:16;;;;;;;6;3.6;;;;;;;12.07;87.29883;938.671;;;;
2022/08/23 04:35:35;;;;;;;5.4;3.9;;;;;;;12.07;87.08105;938.7356;;;;
2022/08/23 04:43:09;;;;;;;5.5;4.2;;;;;;;12.01;87.47168;938.7662;;;;
2022/08/23 04:45:39;;;;;;;6.7;3.8;;;;;;;12.01;87.21973;938.8652;;;;
2022/08/23 04:48:19;;;;;;;6.4;3.6;;;;;;;12.07;86.9082;938.8745;;;;
2022/08/23 04:50:51;;;;;;;5.8;3.3;;;;;;;12.01;86.48633;938.755;;;;
2022/08/23 04:53:22;;;;;;;5.5;3.5;;;;;;;11.8;87.49805;938.7784;;;;
2022/08/23 04:55:47;;;;;;;9.8;4.6;;;;;;;11.95;87.08105;938.8777;;;;
2022/08/23 04:58:13;;;;;;;5.7;3.5;;;;;;;12.02;86.57813;938.919;;;;
2022/08/23 05:00:39;;;;;;;6.9;3.3;;;;;;;12.07;86.3125;938.908;;;;
2022/08/23 05:03:04;;;;;;;6.5;3.7;;;;;;;11.99;86.19434;938.8818;;;;
2022/08/23 05:05:29;;;;;;;6.2;3.7;;;;;;;12.03;86.22656;938.943;;;;
2022/08/23 05:07:58;;;;;;;6.2;3.8;;;;;;;12.05;86.19531;938.9917;;;;
2022/08/23 05:10:28;;;;;;;7.6;3.9;;;;;;;12.06;86.36914;938.995;;;;
2022/08/23 05:12:59;;;;;;;6.7;3.7;;;;;;;12.05;87.3623;939.0164;;;;
2022/08/23 05:15:33;;;;;;;4.8;3.7;;;;;;;12.05;87.06641;938.9966;;;;
2022/08/23 05:17:58;;;;;;;5.9;3.7;;;;;;;11.93;87.58105;938.9454;;;;
2022/08/23 05:24:10;;;;;;;4.8;3.5;;;;;;;11.93;88.60059;939.014;;;;
2022/08/23 05:26:38;;;;;;;6;3.8;;;;;;;11.9;89.27051;939.0433;;;;
2022/08/23 05:29:03;;;;;;;6.7;3.9;;;;;;;11.96;88.83496;939.07;;;;
2022/08/23 05:31:31;;;;;;;6;4.2;;;;;;;12.07;88.42188;939.0453;;;;
2022/08/23 05:33:57;;;;;;;5.3;3.8;;;;;;;12.18;87.96484;939.1225;;;;
2022/08/23 05:36:25;;;;;;;6.6;4.8;;;;;;;12.64;90.76367;939.1194;;;;
2022/08/23 05:38:51;;;;;;;5.9;2.9;;;;;;;14.16;82.06543;939.1104;;;;
2022/08/23 05:41:20;;;;;;;6.4;3;;;;;;;16.01;73.58105;939.0661;;;;
2022/08/23 05:43:46;;;;;;;3.6;2.6;;;;;;;17.28;67.41699;939.079;;;;
2022/08/23 05:46:10;;;;;;;5.1;3.2;;;;;;;18.8;63.48535;939.0857;;;;
2022/08/23 05:48:38;;;;;;;4.3;2.7;;;;;;;19.36;61.15332;939.03;;;;
2022/08/23 05:51:03;;;;;;;4.3;2.9;;;;;;;20.39;55.45801;939.0915;;;;
2022/08/23 05:53:28;;;;;;;6.7;2.7;;;;;;;21.11;54.22559;939.0903;;;;
2022/08/23 05:55:53;;;;;;;7.6;2.7;;;;;;;21.69;52.42285;939.072;;;;
2022/08/23 05:58:18;;;;;;;3.3;2.4;;;;;;;22.35;51.3291;939.0876;;;;
2022/08/23 06:00:44;;;;;;;2.7;2.2;;;;;;;22.07;49.91309;939.0188;;;;
2022/08/23 06:03:12;;;;;;;2.1;1.9;;;;;;;22.66;48.96973;939.1277;;;;
2022/08/23 06:05:37;;;;;;;4.1;2;;;;;;;22.41;48.60156;939.1213;;;;
2022/08/23 06:08:05;;;;;;;5.2;2.1;;;;;;;22.3;50.10254;939.0867;;;;
2022/08/23 06:10:31;;;;;;;2.2;2;;;;;;;22.71;48.08301;939.155;;;;
2022/08/23 06:12:58;;;;;;;2.8;2.2;;;;;;;22.37;48.83203;939.0812;;;;
2022/08/23 06:15:23;;;;;;;3.7;2.3;;;;;;;23.49;47.21484;939.0125;;;;
2022/08/23 06:17:52;;;;;;;3.6;1.8;;;;;;;24.66;44.39063;939.117;;;;
2022/08/23 06:20:24;;;;;;;3.1;2;;;;;;;25.43;42.36523;939.0363;;;;
2022/08/23 06:22:53;;;;;;;3.1;2;;;;;;;25.96;41.94238;939.024;;;;
2022/08/23 06:25:18;;;;;;;3.6;2.2;;;;;;;25.87;41.53223;939.0472;;;;
2022/08/23 06:27:43;;;;;;;2.1;1.9;;;;;;;26.57;39.98633;939.0575;;;;
2022/08/23 06:30:09;;;;;;;3;2.1;;;;;;;26.42;40.32813;939.1031;;;;
2022/08/23 06:32:37;;;;;;;2.8;2.1;;;;;;;26.84;39.59668;939.1166;;;;
2022/08/23 06:35:02;;;;;;;2.2;1.8;;;;;;;26.67;39.45117;939.0705;;;;
2022/08/23 06:37:30;;;;;;;2.2;1.8;;;;;;;27.34;39.2959;939.1131;;;;
2022/08/23 06:39:57;;;;;;;2.2;1.7;;;;;;;27.21;38.75098;939.1108;;;;
2022/08/23 06:42:24;;;;;;;2.4;1.9;;;;;;;26.73;39.34961;939.0614;;;;
2022/08/23 06:44:49;;;;;;;3.7;1.8;;;;;;;26.95;39.96191;939.0901;;;;
2022/08/23 06:47:19;;;;;;;2.8;1.7;;;;;;;27.23;38.76563;939.0369;;;;
2022/08/23 06:49:44;;;;;;;2;1.9;;;;;;;27.32;38.7373;939.0298;;;;
2022/08/23 06:52:12;;;;;;;2.4;1.8;;;;;;;28.38;37.8418;939.0457;;;;
2022/08/23 06:54:37;;;;;;;2.8;1.9;;;;;;;26.76;40.70215;939.0715;;;;
2022/08/23 06:57:03;;;;;;;2.5;1.8;;;;;;;27.74;38.58398;939.0975;;;;
2022/08/23 06:59:28;;;;;;;2.6;2.1;;;;;;;28;38.59375;939.1071;;;;
2022/08/23 07:01:58;;;;;;;2.9;2;;;;;;;29.16;35.53711;939.0734;;;;
2022/08/23 07:04:26;;;;;;;3.2;1.7;;;;;;;29.2;36.56445;939.1096;;;;
2022/08/23 07:06:51;;;;;;;2.5;1.8;;;;;;;30.17;34.08887;939.0899;;;;
2022/08/23 07:09:19;;;;;;;2.4;1.9;;;;;;;28.96;36.44922;939.0394;;;;
2022/08/23 07:14:09;;;;;;;2.3;1.6;;;;;;;28.46;36.98047;939.0386;;;;
2022/08/23 07:16:34;;;;;;;2.2;1.8;;;;;;;28.72;36.65625;939.0296;;;;
2022/08/23 07:22:49;;;;;;;3.1;2;;;;;;;28.18;37.38574;939.0189;;;;
2022/08/23 07:25:14;;;;;;;2.4;1.8;;;;;;;28.3;37.43066;939.0644;;;;
2022/08/23 07:27:45;;;;;;;2.5;1.9;;;;;;;28.5;37.54297;939.038;;;;
2022/08/23 07:30:10;;;;;;;2.8;1.9;;;;;;;28.94;36.38965;939.0298;;;;
2022/08/23 07:32:35;;;;;;;2.6;1.8;;;;;;;28.68;35.84473;938.9947;;;;
2022/08/23 07:35:00;;;;;;;2.7;1.8;;;;;;;29.78;34.90625;939.0277;;;;
2022/08/23 07:37:29;;;;;;;2.5;1.7;;;;;;;29.24;36.12695;939.0375;;;;
2022/08/23 07:39:52;;;;;;;2.2;1.8;;;;;;;29.79;34.56152;939.0559;;;;
2022/08/23 07:42:23;;;;;;;1.7;1.6;;;;;;;29.73;34.37793;939.0139;;;;
2022/08/23 07:44:51;;;;;;;2.5;1.9;;;;;;;28.82;35.41504;939.0165;;;;
2022/08/23 07:47:15;;;;;;;2;1.9;;;;;;;29.82;36.05469;939.058;;;;
2022/08/23 07:52:48;;;;;;;3.5;1.8;;;;;;;30.07;33.80762;939.0388;;;;
2022/08/23 07:55:17;;;;;;;2.2;1.8;;;;;;;29.06;33.875;939.0364;;;;
2022/08/23 07:57:47;;;;;;;2.2;1.7;;;;;;;28.52;36.31934;939.0172;;;;
2022/08/23 08:00:16;;;;;;;2;1.8;;;;;;;29.23;35.85254;939.0228;;;;
2022/08/23 08:02:42;;;;;;;2.4;1.7;;;;;;;29.48;34.76367;938.9608;;;;
2022/08/23 08:05:11;;;;;;;2.9;2;;;;;;;31.12;32.48535;939.012;;;;
2022/08/23 08:07:42;;;;;;;3.8;1.6;;;;;;;31.61;33.01172;939.005;;;;
2022/08/23 08:10:11;;;;;;;3.7;1.8;;;;;;;31.7;31.23438;939.0228;;;;
2022/08/23 08:12:36;;;;;;;3.3;2;;;;;;;32;31.4707;939.0356;;;;
2022/08/23 08:15:01;;;;;;;1.9;1.6;;;;;;;33.54;29.29199;939.0148;;;;
2022/08/23 08:17:26;;;;;;;2.6;2;;;;;;;33.42;30.42676;939.0535;;;;
2022/08/23 08:19:54;;;;;;;2.5;1.6;;;;;;;33.08;29.75586;939.0428;;;;
2022/08/23 08:22:19;;;;;;;2.4;1.6;;;;;;;32.65;32.60742;939.08;;;;
2022/08/23 08:25:38;;;;;;;2.3;1.7;;;;;;;33.15;29.08691;939.0958;;;;
2022/08/23 08:28:07;;;;;;;3.1;1.7;;;;;;;33.51;30;939.0625;;;;
2022/08/23 08:30:32;;;;;;;1.6;1.5;;;;;;;32.15;33.49512;939.1691;;;;
2022/08/23 08:33:01;;;;;;;1.8;1.7;;;;;;;32.66;31.57715;939.1672;;;;
2022/08/23 08:35:26;;;;;;;3;1.9;;;;;;;32.9;31.3291;939.1722;;;;
2022/08/23 08:38:05;;;;;;;2.4;1.9;;;;;;;32.79;30.04883;939.183;;;;
2022/08/23 08:40:29;;;;;;;1.6;1.5;;;;;;;31.51;30.40723;939.2017;;;;
2022/08/23 08:42:58;;;;;;;2.2;1.8;;;;;;;33.35;29.12402;939.1902;;;;
2022/08/23 08:45:27;;;;;;;2.8;1.9;;;;;;;32.85;28.0957;939.1919;;;;
2022/08/23 08:47:56;;;;;;;1.7;1.6;;;;;;;34.05;28.7832;939.2115;;;;
2022/08/23 08:50:22;;;;;;;2;1.4;;;;;;;34.24;26.10938;939.1736;;;;
2022/08/23 08:52:48;;;;;;;1.7;1.5;;;;;;;34.18;27.17773;939.1733;;;;
2022/08/23 08:55:17;;;;;;;1.6;1.2;;;;;;;33.74;26.68262;939.1873;;;;
2022/08/23 08:57:42;;;;;;;1.9;1.6;;;;;;;34.47;27.32813;939.1404;;;;
2022/08/23 09:00:07;;;;;;;1.6;1.5;;;;;;;35.16;27.16406;939.1836;;;;
2022/08/23 09:02:32;;;;;;;1.6;1.2;;;;;;;33.94;28.00684;939.1494;;;;
2022/08/23 09:04:57;;;;;;;1.5;1.4;;;;;;;34.58;27.97363;939.1613;;;;
2022/08/23 09:13:30;;;;;;;1.7;1.3;;;;;;;36;25.46191;939.1911;;;;
2022/08/23 09:15:59;;;;;;;1.4;1.2;;;;;;;35.66;24.68066;939.1671;;;;
2022/08/23 09:18:31;;;;;;;1.3;1.2;;;;;;;32.19;31.16016;939.087;;;;
2022/08/23 09:21:02;;;;;;;1.8;1.4;;;;;;;31.21;33.04199;939.0677;;;;
2022/08/23 09:23:34;;;;;;;3;1.4;;;;;;;29.35;36.48145;939.0519;;;;
2022/08/23 09:25:59;;;;;;;1.2;1.1;;;;;;;29.95;35.19336;939.0488;;;;
2022/08/23 09:28:24;;;;;;;2.5;1.3;;;;;;;30.81;33.24023;939.0719;;;;
2022/08/23 09:30:53;;;;;;;1.4;1.3;;;;;;;31.04;33.9873;939.0633;;;;
2022/08/23 09:33:22;;;;;;;2;1.2;;;;;;;31.41;30.26855;939.0939;;;;
2022/08/23 09:35:47;;;;;;;2;1.3;;;;;;;31.46;28.93164;939.1127;;;;
2022/08/23 09:38:19;;;;;;;1.6;1.2;;;;;;;30.4;32.55371;939.0347;;;;
2022/08/23 09:40:51;;;;;;;1.2;1.1;;;;;;;30.22;30.11719;939.032;;;;
2022/08/23 09:43:17;;;;;;;2.4;1.4;;;;;;;30.38;30.78516;939.0455;;;;
2022/08/23 09:45:44;;;;;;;1.3;1.2;;;;;;;30.02;30.92773;939.0303;;;;
2022/08/23 09:48:09;;;;;;;1.9;1.7;;;;;;;29.5;32.90625;939.0137;;;;
2022/08/23 09:50:38;;;;;;;2.6;1.3;;;;;;;29.31;34.53711;939.0164;;;;
2022/08/23 09:53:03;;;;;;;2.1;1.3;;;;;;;28.41;35.6084;939.0589;;;;
2022/08/23 09:55:30;;;;;;;2.4;1.3;;;;;;;28.29;37.71484;939.0182;;;;
2022/08/23 09:57:55;;;;;;;1.4;1.3;;;;;;;27.86;37.60742;938.9937;;;;
2022/08/23 10:00:24;;;;;;;2.2;1.3;;;;;;;28.01;37.56055;938.9247;;;;
2022/08/23 10:02:57;;;;;;;1.4;1;;;;;;;27.42;36.63379;938.9606;;;;
2022/08/23 10:05:24;;;;;;;1.7;1.3;;;;;;;27.47;36.29395;938.9214;;;;
2022/08/23 10:07:50;;;;;;;1.2;1.1;;;;;;;27.32;37.62207;938.9282;;;;
2022/08/23 10:10:18;;;;;;;2.2;1.2;;;;;;;27.39;38.3877;938.9367;;;;
2022/08/23 10:12:46;;;;;;;1.6;1.3;;;;;;;27.63;37.81445;938.894;;;;
2022/08/23 10:15:11;;;;;;;1.8;1.4;;;;;;;27.79;35.88086;938.8353;;;;
2022/08/23 10:17:40;;;;;;;1.9;1.4;;;;;;;28.1;33.44531;938.8608;;;;
2022/08/23 10:20:07;;;;;;;1.7;1.3;;;;;;;28.85;33.32227;938.834;;;;
2022/08/23 10:22:32;;;;;;;2.3;1.1;;;;;;;29.34;34.08594;938.829;;;;
2022/08/23 10:24:59;;;;;;;1.4;1.2;;;;;;;29.03;33.94336;938.8569;;;;
2022/08/23 10:29:50;;;;;;;1.5;1.2;;;;;;;29.58;36.25;938.7227;;;;
2022/08/23 10:33:16;;;;;;;1.8;1.4;;;;;;;28.81;36.12891;938.8008;;;;
2022/08/23 10:35:44;;;;;;;2.3;1.5;;;;;;;28.79;37.47266;938.806;;;;
2022/08/23 10:38:14;;;;;;;1.3;1.2;;;;;;;30.15;34.42188;938.7972;;;;
2022/08/23 10:40:39;;;;;;;1.3;1.2;;;;;;;30.62;32.71289;938.7569;;;;
2022/08/23 10:43:04;;;;;;;1.8;1.3;;;;;;;29.46;36.51465;938.7425;;;;
2022/08/23 10:45:37;;;;;;;1.2;1.1;;;;;;;29;37.40527;938.7463;;;;
2022/08/23 10:48:03;;;;;;;1.5;1.2;;;;;;;29.57;34.71094;938.7358;;;;
2022/08/23 10:50:28;;;;;;;2.8;1.2;;;;;;;30.01;34.75684;938.6683;;;;
2022/08/23 10:52:58;;;;;;;1.8;1.2;;;;;;;30.36;33.67285;938.7202;;;;
2022/08/23 10:57:56;;;;;;;1.2;1.1;;;;;;;31.74;30.96191;938.7556;;;;
2022/08/23 11:00:21;;;;;;;2.4;1.4;;;;;;;32.78;29.55566;938.7403;;;;
2022/08/23 11:02:53;;;;;;;2;1.5;;;;;;;32.08;30.02539;938.7784;;;;
2022/08/23 11:05:25;;;;;;;1.4;1.3;;;;;;;32;29.78125;938.7742;;;;
2022/08/23 11:07:55;;;;;;;1.9;1.1;;;;;;;29.41;32.85156;938.7369;;;;
2022/08/23 11:10:25;;;;;;;1.5;1.1;;;;;;;28.75;36.32617;938.6783;;;;
2022/08/23 11:12:52;;;;;;;1.6;1.2;;;;;;;29.94;33.41504;938.7019;;;;
2022/08/23 11:15:18;;;;;;;2;1.3;;;;;;;29.75;33.81934;938.7128;;;;
2022/08/23 11:17:44;;;;;;;1.7;1.1;;;;;;;29.86;34.66211;938.7039;;;;
2022/08/23 11:20:24;;;;;;;1.7;1.2;;;;;;;30.41;32.97266;938.6454;;;;
2022/08/23 11:22:49;;;;;;;1.8;1.1;;;;;;;29.59;33.13965;938.7006;;;;
2022/08/23 11:25:15;;;;;;;1.8;1.3;;;;;;;28.45;37.16992;938.6389;;;;
2022/08/23 11:27:39;;;;;;;1.5;1.3;;;;;;;29.6;35.91699;938.6724;;;;
2022/08/23 11:30:04;;;;;;;1.7;1.2;;;;;;;30.79;31.54199;938.6328;;;;
2022/08/23 11:32:32;;;;;;;1.9;1.3;;;;;;;30.39;34.71484;938.6622;;;;
2022/08/23 11:34:57;;;;;;;1.2;1;;;;;;;30.93;32.36523;938.6578;;;;
2022/08/23 11:37:22;;;;;;;1.6;1.5;;;;;;;29.35;36.19531;938.6588;;;;
2022/08/23 11:39:47;;;;;;;1.8;1.4;;;;;;;28.75;35.62402;938.6658;;;;
2022/08/23 11:42:13;;;;;;;2.5;1.3;;;;;;;29.76;33.66504;938.6678;;;;
2022/08/23 11:44:42;;;;;;;1.9;1.3;;;;;;;28.56;38.19043;938.6926;;;;
2022/08/23 11:47:12;;;;;;;3;1.3;;;;;;;28.26;34.94336;938.6475;;;;
2022/08/23 11:49:41;;;;;;;1.3;1.2;;;;;;;28.17;39.90332;938.6853;;;;
2022/08/23 11:52:06;;;;;;;1.7;1.2;;;;;;;28.27;36.65527;938.6761;;;;
2022/08/23 11:54:31;;;;;;;1.8;1.3;;;;;;;28.86;34.84766;938.7147;;;;
2022/08/23 11:56:57;;;;;;;1.7;1.3;;;;;;;28.61;37.00488;938.6872;;;;
2022/08/23 11:59:23;;;;;;;3.2;1.3;;;;;;;28.23;38.39941;938.6312;;;;
2022/08/23 12:01:47;;;;;;;1.4;1.3;;;;;;;28.46;38.69238;938.6423;;;;
2022/08/23 12:04:15;;;;;;;3.4;1.3;;;;;;;27.39;40.03516;938.636;;;;
2022/08/23 12:06:40;;;;;;;2.2;1.4;;;;;;;27.28;39.32617;938.6583;;;;
2022/08/23 12:09:09;;;;;;;1.7;1.4;;;;;;;26.92;41.65332;938.6733;;;;
2022/08/23 12:11:31;;;;;;;2.5;1.4;;;;;;;26.24;43.33008;938.5942;;;;
2022/08/23 12:13:58;;;;;;;1.6;1.2;;;;;;;26.14;44.77441;938.5902;;;;
2022/08/23 12:16:24;;;;;;;2.5;1.5;;;;;;;26.46;43.7168;938.627;;;;
2022/08/23 12:18:49;;;;;;;1.9;1.5;;;;;;;27.02;41.11621;938.586;;;;
2022/08/23 12:21:14;;;;;;;1.7;1.1;;;;;;;27.38;38.64648;938.6716;;;;
2022/08/23 12:23:39;;;;;;;2.1;1.4;;;;;;;26.7;44.29688;938.6625;;;;
2022/08/23 12:26:07;;;;;;;2.4;1.4;;;;;;;26.46;42.91309;938.5082;;;;
2022/08/23 12:28:32;;;;;;;1.4;1.1;;;;;;;26.92;40.39648;938.606;;;;
2022/08/23 12:30:57;;;;;;;1.4;1.2;;;;;;;27.29;38.35547;938.6822;;;;
2022/08/23 12:33:25;;;;;;;2;1.3;;;;;;;26.96;41.97656;938.6691;;;;
2022/08/23 12:35:53;;;;;;;2.8;1.5;;;;;;;26.92;41.8418;938.668;;;;
2022/08/23 12:38:18;;;;;;;2;1.5;;;;;;;26.65;38.43066;938.6883;;;;
2022/08/23 12:44:23;;;;;;;2.8;1.7;;;;;;;26.41;42.24414;938.5412;;;;
2022/08/23 12:46:48;;;;;;;1.8;1.4;;;;;;;26.79;39.5918;938.5545;;;;
2022/08/23 12:49:15;;;;;;;2.3;1.4;;;;;;;26.82;39.70117;938.4764;;;;
2022/08/23 12:51:45;;;;;;;2.7;1.5;;;;;;;26.68;40.41113;938.4833;;;;
2022/08/23 12:54:10;;;;;;;1.4;1.2;;;;;;;26.59;40.22559;938.5189;;;;
2022/08/23 12:56:35;;;;;;;4.7;1.6;;;;;;;26.16;40.16309;938.4528;;;;
2022/08/23 12:59:02;;;;;;;2.2;1.6;;;;;;;26.13;40.43164;938.4634;;;;
2022/08/23 13:01:25;;;;;;;2.1;1.4;;;;;;;26.07;42.48535;938.4448;;;;
2022/08/23 13:03:55;;;;;;;1.6;1.3;;;;;;;26.2;40.61621;938.4304;;;;
2022/08/23 13:06:23;;;;;;;1.6;1.3;;;;;;;26.22;40.90234;938.435;;;;
2022/08/23 13:08:50;;;;;;;2.6;1.5;;;;;;;26.32;41.23145;938.4095;;;;
2022/08/23 13:11:14;;;;;;;2.1;1.7;;;;;;;25.99;41.95703;938.3989;;;;
2022/08/23 13:13:40;;;;;;;1.6;1.4;;;;;;;25.77;40.12793;938.381;;;;
2022/08/23 13:16:06;;;;;;;1.5;1.4;;;;;;;25.8;42.49512;938.408;;;;
2022/08/23 13:18:33;;;;;;;2.9;1.4;;;;;;;25.38;43.50684;938.4014;;;;
2022/08/23 13:20:58;;;;;;;1.3;1.2;;;;;;;25.71;39.81543;938.3864;;;;
2022/08/23 13:23:26;;;;;;;1.7;1.5;;;;;;;25.8;42.64844;938.3886;;;;
2022/08/23 13:25:51;;;;;;;3.4;1.6;;;;;;;25.26;41.61719;938.3695;;;;
2022/08/23 13:28:16;;;;;;;1.6;1.4;;;;;;;25.23;42.09863;938.3596;;;;
2022/08/23 13:30:42;;;;;;;2.2;1.2;;;;;;;25.32;42.98145;938.4116;;;;
2022/08/23 13:33:07;;;;;;;2.9;1.4;;;;;;;25.01;43.12793;938.3557;;;;
2022/08/23 13:35:32;;;;;;;2.1;1.3;;;;;;;25.17;45.69336;938.3425;;;;
2022/08/23 13:38:01;;;;;;;2.1;1.6;;;;;;;25.26;43.62402;938.2989;;;;
2022/08/23 13:40:26;;;;;;;3.1;1.5;;;;;;;25.18;44.24219;938.2654;;;;
2022/08/23 13:42:52;;;;;;;3;1.5;;;;;;;25.29;44.76074;938.2712;;;;
2022/08/23 13:45:18;;;;;;;3.3;1.4;;;;;;;25.55;41.56152;938.2778;;;;
2022/08/23 13:47:47;;;;;;;2.4;1.6;;;;;;;25.41;43.80371;938.215;;;;
2022/08/23 13:50:12;;;;;;;2.4;1.4;;;;;;;25.4;45.06641;938.298;;;;
2022/08/23 13:52:43;;;;;;;2.9;1.3;;;;;;;25.35;44.08105;938.2726;;;;
2022/08/23 13:55:16;;;;;;;2.9;1.7;;;;;;;25.3;45.62402;938.225;;;;
2022/08/23 13:57:44;;;;;;;1.7;1.4;;;;;;;25.22;44.99023;938.2188;;;;
2022/08/23 14:00:09;;;;;;;1.8;1.5;;;;;;;25.51;43.84961;938.2234;;;;
2022/08/23 14:02:40;;;;;;;2.4;1.3;;;;;;;25.35;45.45215;938.1853;;;;
2022/08/23 14:05:10;;;;;;;5.2;1.5;;;;;;;25.55;44.20703;938.1696;;;;
2022/08/23 14:07:35;;;;;;;2.9;1.7;;;;;;;25.27;44.29883;938.2173;;;;
2022/08/23 14:10:03;;;;;;;3.2;1.6;;;;;;;25.44;45.17676;938.1894;;;;
2022/08/23 14:12:29;;;;;;;5.2;1.6;;;;;;;25.8;43.97168;938.0747;;;;
2022/08/23 14:14:56;;;;;;;2.6;1.4;;;;;;;25.49;43.02051;938.1152;;;;
2022/08/23 14:17:21;;;;;;;2.6;1.5;;;;;;;25.35;43.8457;938.1013;;;;
2022/08/23 14:19:47;;;;;;;2.8;1.4;;;;;;;25.2;44.0918;938.108;;;;
2022/08/23 14:22:13;;;;;;;1.8;1.5;;;;;;;25.18;44.21875;938.15;;;;
2022/08/23 14:24:37;;;;;;;1.6;1.3;;;;;;;24.83;44.12402;938.2045;;;;
2022/08/23 14:27:03;;;;;;;1.5;1.4;;;;;;;24.55;42.19922;938.0915;;;;
2022/08/23 14:29:29;;;;;;;2.5;1.5;;;;;;;24.64;42.88086;938.1672;;;;
2022/08/23 14:31:54;;;;;;;1.8;1.4;;;;;;;24.79;42.38672;938.1395;;;;
2022/08/23 14:34:21;;;;;;;2.9;1.4;;;;;;;24.6;43.00488;938.134;;;;
2022/08/23 14:36:46;;;;;;;1.9;1.3;;;;;;;24.51;43.44629;938.2045;;;;
2022/08/23 14:39:13;;;;;;;1.5;1.3;;;;;;;24.52;43.3877;938.1731;;;;
2022/08/23 14:41:42;;;;;;;1.8;1.3;;;;;;;24.74;42.91406;938.2215;;;;
2022/08/23 14:44:39;;;;;;;2.2;1.4;;;;;;;24.73;44.88184;938.2294;;;;
2022/08/23 14:47:04;;;;;;;2.4;1.4;;;;;;;24.54;43.81348;938.2668;;;;
2022/08/23 14:54:28;;;;;;;2.6;1.5;;;;;;;24.81;43.875;938.2589;;;;
2022/08/23 14:56:53;;;;;;;1.8;1.7;;;;;;;24.77;41.47754;938.2706;;;;
2022/08/23 14:59:19;;;;;;;2;1.3;;;;;;;24.72;42.01465;938.1603;;;;
2022/08/23 15:01:43;;;;;;;3.4;1.4;;;;;;;24.54;45.80566;938.2031;;;;
2022/08/23 15:04:13;;;;;;;7.6;1.5;;;;;;;24.47;44.52539;938.2385;;;;
2022/08/23 15:06:40;;;;;;;1.3;1.2;;;;;;;24.7;42.20117;938.2405;;;;
2022/08/23 15:09:07;;;;;;;2;1.2;;;;;;;24.66;42.375;938.2755;;;;
2022/08/23 15:11:32;;;;;;;2;1.2;;;;;;;24.81;40.76172;938.2241;;;;
2022/08/23 15:14:02;;;;;;;1.8;1.4;;;;;;;24.78;41.11328;938.2456;;;;
2022/08/23 15:16:27;;;;;;;2.4;1.3;;;;;;;24.47;43.42871;938.2678;;;;
2022/08/23 15:18:56;;;;;;;1.8;1.3;;;;;;;24.55;42.12988;938.2581;;;;
2022/08/23 15:21:21;;;;;;;1.4;1.3;;;;;;;24.57;41.83594;938.1987;;;;
2022/08/23 15:23:48;;;;;;;3.1;1.4;;;;;;;24.57;41.59961;938.1606;;;;
2022/08/23 15:26:14;;;;;;;1.7;1.3;;;;;;;24.66;41.08984;938.2838;;;;
2022/08/23 15:28:41;;;;;;;2.5;1.6;;;;;;;24.74;41.05078;938.2556;;;;
2022/08/23 15:31:07;;;;;;;1.3;1.2;;;;;;;24.63;40.94434;938.2353;;;;
2022/08/23 15:33:33;;;;;;;3.2;1.3;;;;;;;24.67;40.38281;938.2403;;;;
2022/08/23 15:36:00;;;;;;;1.3;1.2;;;;;;;24.5;41.29883;938.2466;;;;
2022/08/23 15:38:27;;;;;;;1.5;1.1;;;;;;;24.45;41.74219;938.2658;;;;
2022/08/23 15:40:53;;;;;;;2.2;1.4;;;;;;;24.56;40.10156;938.2441;;;;
2022/08/23 15:43:21;;;;;;;2.4;1.2;;;;;;;24.63;42.21875;938.2354;;;;
2022/08/23 15:45:46;;;;;;;2.3;1.3;;;;;;;24.71;40.45801;938.2327;;;;
2022/08/23 15:48:11;;;;;;;4.7;1.6;;;;;;;24.56;40.19727;938.238;;;;
2022/08/23 15:50:36;;;;;;;2.1;1.2;;;;;;;24.44;41.69434;938.1974;;;;
2022/08/23 15:53:07;;;;;;;1.7;1.1;;;;;;;24.38;39.60352;938.267;;;;
2022/08/23 15:55:36;;;;;;;1.4;1.2;;;;;;;24.39;40.11133;938.2391;;;;